sensor_id;sensor_type;location;lat;lon;timestamp;P1;durP1;ratioP1;P2;durP2;ratioP2
4839;SDS011;2434;48.486;7.964;2022-08-25T00:01:45;2.20;;;2.10;;
4839;SDS011;2434;48.486;7.964;2022-08-25T00:04:15;3.33;;;2.20;;
4839;SDS011;2434;48.486;7.964;2022-08-25T00:06:46;2.90;;;2.23;;
4839;SDS011;2434;48.486;7.964;2022-08-25T00:09:17;2.50;;;2.40;;
4839;SDS011;2434;48.486;7.964;2022-08-25T00:11:47;2.00;;;1.90;;
4839;SDS011;2434;48.486;7.964;2022-08-25T00:14:17;2.27;;;2.17;;
4839;SDS011;2434;48.486;7.964;2022-08-25T00:16:48;2.40;;;1.93;;
4839;SDS011;2434;48.486;7.964;2022-08-25T00:19:23;2.67;;;2.47;;
4839;SDS011;2434;48.486;7.964;2022-08-25T00:21:54;4.13;;;2.17;;
4839;SDS011;2434;48.486;7.964;2022-08-25T00:24:23;2.20;;;2.10;;
4839;SDS011;2434;48.486;7.964;2022-08-25T00:26:53;2.50;;;2.30;;
4839;SDS011;2434;48.486;7.964;2022-08-25T00:29:23;1.93;;;1.83;;
4839;SDS011;2434;48.486;7.964;2022-08-25T00:31:54;2.37;;;2.13;;
4839;SDS011;2434;48.486;7.964;2022-08-25T00:34:25;2.50;;;2.30;;
4839;SDS011;2434;48.486;7.964;2022-08-25T00:36:55;2.50;;;2.30;;
4839;SDS011;2434;48.486;7.964;2022-08-25T00:39:24;2.10;;;2.00;;
4839;SDS011;2434;48.486;7.964;2022-08-25T00:41:54;2.57;;;2.37;;
4839;SDS011;2434;48.486;7.964;2022-08-25T00:44:23;2.33;;;2.13;;
4839;SDS011;2434;48.486;7.964;2022-08-25T00:46:56;4.03;;;2.23;;
4839;SDS011;2434;48.486;7.964;2022-08-25T00:49:26;2.40;;;2.20;;
4839;SDS011;2434;48.486;7.964;2022-08-25T00:51:59;2.07;;;1.97;;
4839;SDS011;2434;48.486;7.964;2022-08-25T00:54:31;4.43;;;2.10;;
4839;SDS011;2434;48.486;7.964;2022-08-25T00:57:05;2.30;;;2.10;;
4839;SDS011;2434;48.486;7.964;2022-08-25T00:59:35;2.43;;;2.33;;
4839;SDS011;2434;48.486;7.964;2022-08-25T01:02:05;1.90;;;1.80;;
4839;SDS011;2434;48.486;7.964;2022-08-25T01:04:39;1.93;;;1.83;;
4839;SDS011;2434;48.486;7.964;2022-08-25T01:07:15;2.30;;;2.10;;
4839;SDS011;2434;48.486;7.964;2022-08-25T01:09:44;2.40;;;2.30;;
4839;SDS011;2434;48.486;7.964;2022-08-25T01:12:14;2.13;;;1.93;;
4839;SDS011;2434;48.486;7.964;2022-08-25T01:14:43;2.50;;;2.30;;
4839;SDS011;2434;48.486;7.964;2022-08-25T01:17:14;2.23;;;1.80;;
4839;SDS011;2434;48.486;7.964;2022-08-25T01:19:42;2.50;;;2.20;;
4839;SDS011;2434;48.486;7.964;2022-08-25T01:22:12;2.43;;;2.33;;
4839;SDS011;2434;48.486;7.964;2022-08-25T01:24:43;2.23;;;2.03;;
4839;SDS011;2434;48.486;7.964;2022-08-25T01:27:16;2.40;;;2.27;;
4839;SDS011;2434;48.486;7.964;2022-08-25T01:29:44;2.20;;;2.10;;
4839;SDS011;2434;48.486;7.964;2022-08-25T01:32:12;2.33;;;2.13;;
4839;SDS011;2434;48.486;7.964;2022-08-25T01:34:42;1.97;;;1.87;;
4839;SDS011;2434;48.486;7.964;2022-08-25T01:37:13;2.70;;;2.17;;
4839;SDS011;2434;48.486;7.964;2022-08-25T01:39:44;2.00;;;1.90;;
4839;SDS011;2434;48.486;7.964;2022-08-25T01:42:18;2.17;;;2.07;;
4839;SDS011;2434;48.486;7.964;2022-08-25T01:45:05;4.10;;;1.80;;
4839;SDS011;2434;48.486;7.964;2022-08-25T01:47:35;2.67;;;2.27;;
4839;SDS011;2434;48.486;7.964;2022-08-25T01:50:04;2.10;;;2.00;;
4839;SDS011;2434;48.486;7.964;2022-08-25T01:52:36;1.90;;;1.80;;
4839;SDS011;2434;48.486;7.964;2022-08-25T01:55:12;3.27;;;2.30;;
4839;SDS011;2434;48.486;7.964;2022-08-25T01:57:41;2.23;;;2.07;;
4839;SDS011;2434;48.486;7.964;2022-08-25T02:00:09;2.40;;;2.00;;
4839;SDS011;2434;48.486;7.964;2022-08-25T02:02:40;4.20;;;1.87;;
4839;SDS011;2434;48.486;7.964;2022-08-25T02:05:09;2.10;;;1.87;;
4839;SDS011;2434;48.486;7.964;2022-08-25T02:07:41;2.03;;;1.93;;
4839;SDS011;2434;48.486;7.964;2022-08-25T02:10:10;3.00;;;2.70;;
4839;SDS011;2434;48.486;7.964;2022-08-25T02:12:39;2.57;;;2.47;;
4839;SDS011;2434;48.486;7.964;2022-08-25T02:15:08;4.50;;;2.57;;
4839;SDS011;2434;48.486;7.964;2022-08-25T02:17:37;2.20;;;2.10;;
4839;SDS011;2434;48.486;7.964;2022-08-25T02:20:06;2.73;;;2.33;;
4839;SDS011;2434;48.486;7.964;2022-08-25T02:22:34;2.40;;;2.20;;
4839;SDS011;2434;48.486;7.964;2022-08-25T02:25:05;2.43;;;2.30;;
4839;SDS011;2434;48.486;7.964;2022-08-25T02:27:34;6.30;;;2.10;;
4839;SDS011;2434;48.486;7.964;2022-08-25T02:30:03;2.37;;;2.13;;
4839;SDS011;2434;48.486;7.964;2022-08-25T02:32:32;2.33;;;2.23;;
4839;SDS011;2434;48.486;7.964;2022-08-25T02:35:01;2.67;;;2.47;;
4839;SDS011;2434;48.486;7.964;2022-08-25T02:37:29;2.90;;;2.23;;
4839;SDS011;2434;48.486;7.964;2022-08-25T02:39:58;2.10;;;2.00;;
4839;SDS011;2434;48.486;7.964;2022-08-25T02:42:28;2.67;;;2.30;;
4839;SDS011;2434;48.486;7.964;2022-08-25T02:44:57;2.20;;;2.07;;
4839;SDS011;2434;48.486;7.964;2022-08-25T02:47:25;3.37;;;2.20;;
4839;SDS011;2434;48.486;7.964;2022-08-25T02:49:54;2.37;;;2.27;;
4839;SDS011;2434;48.486;7.964;2022-08-25T02:52:23;2.53;;;2.33;;
4839;SDS011;2434;48.486;7.964;2022-08-25T02:54:51;2.60;;;2.40;;
4839;SDS011;2434;48.486;7.964;2022-08-25T02:57:20;2.23;;;2.10;;
4839;SDS011;2434;48.486;7.964;2022-08-25T02:59:50;2.93;;;2.20;;
4839;SDS011;2434;48.486;7.964;2022-08-25T03:02:19;2.30;;;2.20;;
4839;SDS011;2434;48.486;7.964;2022-08-25T03:04:48;2.70;;;2.60;;
4839;SDS011;2434;48.486;7.964;2022-08-25T03:07:20;2.33;;;2.23;;
4839;SDS011;2434;48.486;7.964;2022-08-25T03:09:50;3.03;;;2.73;;
4839;SDS011;2434;48.486;7.964;2022-08-25T03:12:18;2.00;;;1.90;;
4839;SDS011;2434;48.486;7.964;2022-08-25T03:14:47;2.37;;;2.27;;
4839;SDS011;2434;48.486;7.964;2022-08-25T03:17:17;2.60;;;2.40;;
4839;SDS011;2434;48.486;7.964;2022-08-25T03:19:45;3.37;;;2.50;;
4839;SDS011;2434;48.486;7.964;2022-08-25T03:22:13;2.00;;;1.90;;
4839;SDS011;2434;48.486;7.964;2022-08-25T03:24:42;2.37;;;2.17;;
4839;SDS011;2434;48.486;7.964;2022-08-25T03:27:11;2.50;;;1.80;;
4839;SDS011;2434;48.486;7.964;2022-08-25T03:29:39;2.90;;;2.27;;
4839;SDS011;2434;48.486;7.964;2022-08-25T03:32:08;2.23;;;2.13;;
4839;SDS011;2434;48.486;7.964;2022-08-25T03:34:38;3.50;;;2.77;;
4839;SDS011;2434;48.486;7.964;2022-08-25T03:37:07;2.77;;;2.33;;
4839;SDS011;2434;48.486;7.964;2022-08-25T03:39:35;2.63;;;2.53;;
4839;SDS011;2434;48.486;7.964;2022-08-25T03:42:03;3.00;;;2.80;;
4839;SDS011;2434;48.486;7.964;2022-08-25T03:44:32;2.50;;;2.40;;
4839;SDS011;2434;48.486;7.964;2022-08-25T03:47:00;2.53;;;2.40;;
4839;SDS011;2434;48.486;7.964;2022-08-25T03:49:28;5.17;;;3.03;;
4839;SDS011;2434;48.486;7.964;2022-08-25T03:52:01;5.50;;;2.83;;
4839;SDS011;2434;48.486;7.964;2022-08-25T03:54:29;2.70;;;2.50;;
4839;SDS011;2434;48.486;7.964;2022-08-25T03:56:58;3.97;;;3.17;;
4839;SDS011;2434;48.486;7.964;2022-08-25T03:59:26;3.70;;;3.40;;
4839;SDS011;2434;48.486;7.964;2022-08-25T04:01:55;3.17;;;2.93;;
4839;SDS011;2434;48.486;7.964;2022-08-25T04:04:23;2.50;;;2.40;;
4839;SDS011;2434;48.486;7.964;2022-08-25T04:06:52;3.90;;;3.20;;
4839;SDS011;2434;48.486;7.964;2022-08-25T04:09:21;3.30;;;3.10;;
4839;SDS011;2434;48.486;7.964;2022-08-25T04:11:50;3.67;;;3.33;;
4839;SDS011;2434;48.486;7.964;2022-08-25T04:14:19;3.87;;;3.30;;
4839;SDS011;2434;48.486;7.964;2022-08-25T04:16:49;3.70;;;3.40;;
4839;SDS011;2434;48.486;7.964;2022-08-25T04:19:19;4.20;;;3.80;;
4839;SDS011;2434;48.486;7.964;2022-08-25T04:21:48;3.93;;;3.53;;
4839;SDS011;2434;48.486;7.964;2022-08-25T04:24:23;3.13;;;2.93;;
4839;SDS011;2434;48.486;7.964;2022-08-25T04:26:51;3.33;;;3.03;;
4839;SDS011;2434;48.486;7.964;2022-08-25T04:29:20;3.00;;;2.80;;
4839;SDS011;2434;48.486;7.964;2022-08-25T04:31:50;4.70;;;3.00;;
4839;SDS011;2434;48.486;7.964;2022-08-25T04:34:20;2.67;;;2.47;;
4839;SDS011;2434;48.486;7.964;2022-08-25T04:36:57;2.60;;;2.40;;
4839;SDS011;2434;48.486;7.964;2022-08-25T04:39:28;3.30;;;2.33;;
4839;SDS011;2434;48.486;7.964;2022-08-25T04:41:57;2.50;;;2.40;;
4839;SDS011;2434;48.486;7.964;2022-08-25T04:44:26;3.10;;;2.80;;
4839;SDS011;2434;48.486;7.964;2022-08-25T04:46:55;2.70;;;2.60;;
4839;SDS011;2434;48.486;7.964;2022-08-25T04:49:24;2.87;;;2.67;;
4839;SDS011;2434;48.486;7.964;2022-08-25T04:51:52;4.73;;;3.20;;
4839;SDS011;2434;48.486;7.964;2022-08-25T04:54:21;3.43;;;2.60;;
4839;SDS011;2434;48.486;7.964;2022-08-25T04:56:51;2.50;;;2.40;;
4839;SDS011;2434;48.486;7.964;2022-08-25T04:59:24;5.17;;;2.60;;
4839;SDS011;2434;48.486;7.964;2022-08-25T05:01:56;2.47;;;2.37;;
4839;SDS011;2434;48.486;7.964;2022-08-25T05:04:28;3.00;;;2.57;;
4839;SDS011;2434;48.486;7.964;2022-08-25T05:06:58;2.87;;;2.67;;
4839;SDS011;2434;48.486;7.964;2022-08-25T05:09:26;3.50;;;3.20;;
4839;SDS011;2434;48.486;7.964;2022-08-25T05:11:59;6.30;;;3.43;;
4839;SDS011;2434;48.486;7.964;2022-08-25T05:14:29;2.67;;;2.40;;
4839;SDS011;2434;48.486;7.964;2022-08-25T05:16:57;2.80;;;2.60;;
4839;SDS011;2434;48.486;7.964;2022-08-25T05:19:26;7.20;;;3.03;;
4839;SDS011;2434;48.486;7.964;2022-08-25T05:21:54;4.67;;;2.97;;
4839;SDS011;2434;48.486;7.964;2022-08-25T05:24:23;6.30;;;2.67;;
4839;SDS011;2434;48.486;7.964;2022-08-25T05:26:53;2.63;;;2.53;;
4839;SDS011;2434;48.486;7.964;2022-08-25T05:29:23;4.93;;;3.00;;
4839;SDS011;2434;48.486;7.964;2022-08-25T05:31:52;2.90;;;2.70;;
4839;SDS011;2434;48.486;7.964;2022-08-25T05:34:20;6.10;;;2.77;;
4839;SDS011;2434;48.486;7.964;2022-08-25T05:36:50;4.77;;;2.70;;
4839;SDS011;2434;48.486;7.964;2022-08-25T05:39:18;3.47;;;3.10;;
4839;SDS011;2434;48.486;7.964;2022-08-25T05:41:46;3.13;;;2.83;;
4839;SDS011;2434;48.486;7.964;2022-08-25T05:44:14;3.47;;;3.20;;
4839;SDS011;2434;48.486;7.964;2022-08-25T05:46:48;13.50;;;3.10;;
4839;SDS011;2434;48.486;7.964;2022-08-25T05:49:16;3.10;;;2.90;;
4839;SDS011;2434;48.486;7.964;2022-08-25T05:51:45;4.10;;;2.97;;
4839;SDS011;2434;48.486;7.964;2022-08-25T05:54:13;3.13;;;2.83;;
4839;SDS011;2434;48.486;7.964;2022-08-25T05:56:42;2.87;;;2.67;;
4839;SDS011;2434;48.486;7.964;2022-08-25T05:59:10;5.93;;;4.03;;
4839;SDS011;2434;48.486;7.964;2022-08-25T06:01:39;5.80;;;5.30;;
4839;SDS011;2434;48.486;7.964;2022-08-25T06:04:26;7.90;;;4.93;;
4839;SDS011;2434;48.486;7.964;2022-08-25T06:06:55;7.03;;;5.40;;
4839;SDS011;2434;48.486;7.964;2022-08-25T06:09:23;6.50;;;5.70;;
4839;SDS011;2434;48.486;7.964;2022-08-25T06:11:51;6.43;;;4.37;;
4839;SDS011;2434;48.486;7.964;2022-08-25T06:14:21;6.07;;;4.50;;
4839;SDS011;2434;48.486;7.964;2022-08-25T06:16:50;7.37;;;5.77;;
4839;SDS011;2434;48.486;7.964;2022-08-25T06:19:19;9.33;;;5.47;;
4839;SDS011;2434;48.486;7.964;2022-08-25T06:21:51;9.73;;;5.47;;
4839;SDS011;2434;48.486;7.964;2022-08-25T06:24:20;14.73;;;6.87;;
4839;SDS011;2434;48.486;7.964;2022-08-25T06:26:48;7.60;;;6.80;;
4839;SDS011;2434;48.486;7.964;2022-08-25T06:29:17;8.23;;;6.33;;
4839;SDS011;2434;48.486;7.964;2022-08-25T06:31:46;7.73;;;6.93;;
4839;SDS011;2434;48.486;7.964;2022-08-25T06:34:15;9.17;;;8.27;;
4839;SDS011;2434;48.486;7.964;2022-08-25T06:36:50;13.17;;;9.00;;
4839;SDS011;2434;48.486;7.964;2022-08-25T06:39:19;15.43;;;9.57;;
4839;SDS011;2434;48.486;7.964;2022-08-25T06:41:49;14.83;;;8.63;;
4839;SDS011;2434;48.486;7.964;2022-08-25T06:44:19;15.77;;;9.23;;
4839;SDS011;2434;48.486;7.964;2022-08-25T06:46:48;13.03;;;9.40;;
4839;SDS011;2434;48.486;7.964;2022-08-25T06:49:17;14.00;;;9.20;;
4839;SDS011;2434;48.486;7.964;2022-08-25T06:51:45;15.43;;;10.30;;
4839;SDS011;2434;48.486;7.964;2022-08-25T06:54:16;12.57;;;8.90;;
4839;SDS011;2434;48.486;7.964;2022-08-25T06:56:44;7.93;;;6.70;;
4839;SDS011;2434;48.486;7.964;2022-08-25T06:59:15;7.63;;;6.77;;
4839;SDS011;2434;48.486;7.964;2022-08-25T07:01:44;11.47;;;7.20;;
4839;SDS011;2434;48.486;7.964;2022-08-25T07:04:15;11.80;;;6.70;;
4839;SDS011;2434;48.486;7.964;2022-08-25T07:06:44;6.80;;;6.07;;
4839;SDS011;2434;48.486;7.964;2022-08-25T07:09:12;8.60;;;6.70;;
4839;SDS011;2434;48.486;7.964;2022-08-25T07:11:42;5.93;;;5.23;;
4839;SDS011;2434;48.486;7.964;2022-08-25T07:14:12;12.87;;;5.70;;
4839;SDS011;2434;48.486;7.964;2022-08-25T07:16:42;8.93;;;5.90;;
4839;SDS011;2434;48.486;7.964;2022-08-25T07:19:15;6.97;;;4.73;;
4839;SDS011;2434;48.486;7.964;2022-08-25T07:21:47;6.20;;;4.70;;
4839;SDS011;2434;48.486;7.964;2022-08-25T07:24:17;5.87;;;5.23;;
4839;SDS011;2434;48.486;7.964;2022-08-25T07:26:47;12.47;;;5.53;;
4839;SDS011;2434;48.486;7.964;2022-08-25T07:29:16;13.23;;;5.80;;
4839;SDS011;2434;48.486;7.964;2022-08-25T07:31:58;8.47;;;5.33;;
4839;SDS011;2434;48.486;7.964;2022-08-25T07:34:27;11.07;;;5.40;;
4839;SDS011;2434;48.486;7.964;2022-08-25T07:37:18;7.93;;;5.03;;
4839;SDS011;2434;48.486;7.964;2022-08-25T07:40:08;9.37;;;4.90;;
4839;SDS011;2434;48.486;7.964;2022-08-25T07:42:40;6.13;;;5.40;;
4839;SDS011;2434;48.486;7.964;2022-08-25T07:45:09;7.00;;;5.50;;
4839;SDS011;2434;48.486;7.964;2022-08-25T07:47:38;6.77;;;4.47;;
4839;SDS011;2434;48.486;7.964;2022-08-25T07:50:07;6.10;;;5.50;;
4839;SDS011;2434;48.486;7.964;2022-08-25T07:52:37;8.90;;;4.13;;
4839;SDS011;2434;48.486;7.964;2022-08-25T07:55:07;6.53;;;5.90;;
4839;SDS011;2434;48.486;7.964;2022-08-25T07:57:37;4.30;;;3.90;;
4839;SDS011;2434;48.486;7.964;2022-08-25T08:00:08;6.47;;;4.13;;
4839;SDS011;2434;48.486;7.964;2022-08-25T08:02:37;5.07;;;3.80;;
4839;SDS011;2434;48.486;7.964;2022-08-25T08:05:06;8.27;;;4.50;;
4839;SDS011;2434;48.486;7.964;2022-08-25T08:07:35;8.17;;;4.10;;
4839;SDS011;2434;48.486;7.964;2022-08-25T08:10:09;6.20;;;4.73;;
4839;SDS011;2434;48.486;7.964;2022-08-25T08:13:01;9.53;;;3.53;;
4839;SDS011;2434;48.486;7.964;2022-08-25T08:15:32;4.20;;;3.80;;
4839;SDS011;2434;48.486;7.964;2022-08-25T08:18:02;6.83;;;3.93;;
4839;SDS011;2434;48.486;7.964;2022-08-25T08:20:32;6.47;;;4.40;;
4839;SDS011;2434;48.486;7.964;2022-08-25T08:23:08;5.73;;;3.97;;
4839;SDS011;2434;48.486;7.964;2022-08-25T08:25:37;4.47;;;4.10;;
4839;SDS011;2434;48.486;7.964;2022-08-25T08:28:06;7.23;;;3.60;;
4839;SDS011;2434;48.486;7.964;2022-08-25T08:30:36;7.90;;;3.87;;
4839;SDS011;2434;48.486;7.964;2022-08-25T08:33:04;5.50;;;3.70;;
4839;SDS011;2434;48.486;7.964;2022-08-25T08:35:37;12.77;;;4.50;;
4839;SDS011;2434;48.486;7.964;2022-08-25T08:38:06;5.53;;;3.67;;
4839;SDS011;2434;48.486;7.964;2022-08-25T08:40:44;4.00;;;3.60;;
4839;SDS011;2434;48.486;7.964;2022-08-25T08:43:41;3.30;;;3.07;;
4839;SDS011;2434;48.486;7.964;2022-08-25T08:46:12;4.27;;;3.50;;
4839;SDS011;2434;48.486;7.964;2022-08-25T08:48:48;5.13;;;3.00;;
4839;SDS011;2434;48.486;7.964;2022-08-25T08:51:28;3.73;;;2.67;;
4839;SDS011;2434;48.486;7.964;2022-08-25T08:53:59;7.07;;;2.67;;
4839;SDS011;2434;48.486;7.964;2022-08-25T08:56:41;5.10;;;3.03;;
4839;SDS011;2434;48.486;7.964;2022-08-25T08:59:16;5.37;;;3.43;;
4839;SDS011;2434;48.486;7.964;2022-08-25T09:01:47;4.20;;;2.87;;
4839;SDS011;2434;48.486;7.964;2022-08-25T09:04:24;3.17;;;2.90;;
4839;SDS011;2434;48.486;7.964;2022-08-25T09:06:58;3.30;;;3.03;;
4839;SDS011;2434;48.486;7.964;2022-08-25T09:09:30;4.30;;;2.47;;
4839;SDS011;2434;48.486;7.964;2022-08-25T09:12:03;2.93;;;2.73;;
4839;SDS011;2434;48.486;7.964;2022-08-25T09:14:42;2.70;;;2.50;;
4839;SDS011;2434;48.486;7.964;2022-08-25T09:17:24;2.80;;;2.60;;
4839;SDS011;2434;48.486;7.964;2022-08-25T09:20:16;3.43;;;3.07;;
4839;SDS011;2434;48.486;7.964;2022-08-25T09:23:02;2.83;;;2.63;;
4839;SDS011;2434;48.486;7.964;2022-08-25T09:25:48;2.73;;;2.53;;
4839;SDS011;2434;48.486;7.964;2022-08-25T09:28:25;2.83;;;2.53;;
4839;SDS011;2434;48.486;7.964;2022-08-25T09:30:59;2.70;;;2.50;;
4839;SDS011;2434;48.486;7.964;2022-08-25T09:33:30;8.00;;;2.70;;
4839;SDS011;2434;48.486;7.964;2022-08-25T09:36:01;2.67;;;2.47;;
4839;SDS011;2434;48.486;7.964;2022-08-25T09:38:31;3.17;;;2.87;;
4839;SDS011;2434;48.486;7.964;2022-08-25T09:41:00;4.00;;;2.77;;
4839;SDS011;2434;48.486;7.964;2022-08-25T09:43:30;3.93;;;2.37;;
4839;SDS011;2434;48.486;7.964;2022-08-25T09:46:01;2.87;;;2.67;;
4839;SDS011;2434;48.486;7.964;2022-08-25T09:48:45;3.73;;;3.20;;
4839;SDS011;2434;48.486;7.964;2022-08-25T09:51:24;3.77;;;2.73;;
4839;SDS011;2434;48.486;7.964;2022-08-25T09:53:55;2.80;;;2.60;;
4839;SDS011;2434;48.486;7.964;2022-08-25T09:56:25;4.80;;;3.00;;
4839;SDS011;2434;48.486;7.964;2022-08-25T09:59:17;3.30;;;3.00;;
4839;SDS011;2434;48.486;7.964;2022-08-25T10:02:03;3.43;;;3.13;;
4839;SDS011;2434;48.486;7.964;2022-08-25T10:04:49;3.37;;;3.07;;
4839;SDS011;2434;48.486;7.964;2022-08-25T10:07:20;4.70;;;2.83;;
4839;SDS011;2434;48.486;7.964;2022-08-25T10:09:52;3.60;;;2.37;;
4839;SDS011;2434;48.486;7.964;2022-08-25T10:12:24;3.10;;;2.30;;
4839;SDS011;2434;48.486;7.964;2022-08-25T10:15:00;3.00;;;2.80;;
4839;SDS011;2434;48.486;7.964;2022-08-25T10:17:57;3.87;;;2.87;;
4839;SDS011;2434;48.486;7.964;2022-08-25T10:21:03;3.17;;;2.90;;
4839;SDS011;2434;48.486;7.964;2022-08-25T10:23:38;4.20;;;2.83;;
4839;SDS011;2434;48.486;7.964;2022-08-25T10:26:12;2.50;;;2.40;;
4839;SDS011;2434;48.486;7.964;2022-08-25T10:28:49;4.40;;;2.97;;
4839;SDS011;2434;48.486;7.964;2022-08-25T10:31:29;3.77;;;3.37;;
4839;SDS011;2434;48.486;7.964;2022-08-25T10:34:11;2.80;;;2.40;;
4839;SDS011;2434;48.486;7.964;2022-08-25T10:36:51;3.23;;;3.00;;
4839;SDS011;2434;48.486;7.964;2022-08-25T10:39:32;4.47;;;2.33;;
4839;SDS011;2434;48.486;7.964;2022-08-25T10:42:16;4.33;;;3.00;;
4839;SDS011;2434;48.486;7.964;2022-08-25T10:45:00;5.53;;;2.87;;
4839;SDS011;2434;48.486;7.964;2022-08-25T10:48:01;2.60;;;2.50;;
4839;SDS011;2434;48.486;7.964;2022-08-25T10:50:43;2.77;;;2.57;;
4839;SDS011;2434;48.486;7.964;2022-08-25T10:53:21;3.00;;;2.80;;
4839;SDS011;2434;48.486;7.964;2022-08-25T10:55:59;3.57;;;3.13;;
4839;SDS011;2434;48.486;7.964;2022-08-25T10:58:47;4.30;;;2.60;;
4839;SDS011;2434;48.486;7.964;2022-08-25T11:01:42;2.97;;;2.77;;
4839;SDS011;2434;48.486;7.964;2022-08-25T11:04:20;2.90;;;2.53;;
4839;SDS011;2434;48.486;7.964;2022-08-25T11:06:55;3.23;;;3.10;;
4839;SDS011;2434;48.486;7.964;2022-08-25T11:09:27;6.40;;;3.30;;
4839;SDS011;2434;48.486;7.964;2022-08-25T11:12:03;4.67;;;3.00;;
4839;SDS011;2434;48.486;7.964;2022-08-25T11:14:35;2.60;;;2.50;;
4839;SDS011;2434;48.486;7.964;2022-08-25T11:17:09;3.30;;;3.10;;
4839;SDS011;2434;48.486;7.964;2022-08-25T11:19:42;4.40;;;2.80;;
4839;SDS011;2434;48.486;7.964;2022-08-25T11:22:18;7.90;;;3.70;;
4839;SDS011;2434;48.486;7.964;2022-08-25T11:24:54;6.80;;;2.53;;
4839;SDS011;2434;48.486;7.964;2022-08-25T11:27:34;2.70;;;2.50;;
4839;SDS011;2434;48.486;7.964;2022-08-25T11:30:10;3.03;;;2.83;;
4839;SDS011;2434;48.486;7.964;2022-08-25T11:32:43;3.00;;;2.37;;
4839;SDS011;2434;48.486;7.964;2022-08-25T11:35:15;3.27;;;2.73;;
4839;SDS011;2434;48.486;7.964;2022-08-25T11:37:55;5.37;;;2.40;;
4839;SDS011;2434;48.486;7.964;2022-08-25T11:40:40;4.07;;;2.80;;
4839;SDS011;2434;48.486;7.964;2022-08-25T11:43:35;3.60;;;3.30;;
4839;SDS011;2434;48.486;7.964;2022-08-25T11:46:20;3.07;;;2.47;;
4839;SDS011;2434;48.486;7.964;2022-08-25T11:49:16;3.13;;;2.77;;
4839;SDS011;2434;48.486;7.964;2022-08-25T11:51:57;2.60;;;2.50;;
4839;SDS011;2434;48.486;7.964;2022-08-25T11:54:33;2.83;;;2.63;;
4839;SDS011;2434;48.486;7.964;2022-08-25T11:57:07;2.80;;;2.60;;
4839;SDS011;2434;48.486;7.964;2022-08-25T12:00:03;3.17;;;2.87;;
4839;SDS011;2434;48.486;7.964;2022-08-25T12:02:36;3.53;;;3.23;;
4839;SDS011;2434;48.486;7.964;2022-08-25T12:05:09;3.10;;;2.83;;
4839;SDS011;2434;48.486;7.964;2022-08-25T12:10:53;2.83;;;2.50;;
4839;SDS011;2434;48.486;7.964;2022-08-25T12:19:27;4.70;;;3.20;;
4839;SDS011;2434;48.486;7.964;2022-08-25T12:25:28;4.50;;;2.93;;
4839;SDS011;2434;48.486;7.964;2022-08-25T12:28:06;5.10;;;2.90;;
4839;SDS011;2434;48.486;7.964;2022-08-25T12:30:51;6.70;;;2.53;;
4839;SDS011;2434;48.486;7.964;2022-08-25T12:33:27;7.13;;;2.80;;
4839;SDS011;2434;48.486;7.964;2022-08-25T12:36:09;2.80;;;2.60;;
4839;SDS011;2434;48.486;7.964;2022-08-25T12:38:52;2.27;;;2.13;;
4839;SDS011;2434;48.486;7.964;2022-08-25T12:41:21;28.97;;;2.80;;
4839;SDS011;2434;48.486;7.964;2022-08-25T12:44:08;2.53;;;2.40;;
4839;SDS011;2434;48.486;7.964;2022-08-25T12:47:05;2.50;;;2.30;;
4839;SDS011;2434;48.486;7.964;2022-08-25T12:49:37;2.60;;;2.50;;
4839;SDS011;2434;48.486;7.964;2022-08-25T12:52:06;3.43;;;2.20;;
4839;SDS011;2434;48.486;7.964;2022-08-25T12:54:44;3.30;;;2.50;;
4839;SDS011;2434;48.486;7.964;2022-08-25T12:57:21;4.53;;;2.43;;
4839;SDS011;2434;48.486;7.964;2022-08-25T12:59:57;2.77;;;2.50;;
4839;SDS011;2434;48.486;7.964;2022-08-25T13:02:37;3.70;;;2.70;;
4839;SDS011;2434;48.486;7.964;2022-08-25T13:05:29;2.60;;;2.40;;
4839;SDS011;2434;48.486;7.964;2022-08-25T13:08:17;2.53;;;2.43;;
4839;SDS011;2434;48.486;7.964;2022-08-25T13:11:12;3.13;;;2.30;;
4839;SDS011;2434;48.486;7.964;2022-08-25T13:13:47;4.07;;;2.40;;
4839;SDS011;2434;48.486;7.964;2022-08-25T13:16:23;1.93;;;1.83;;
4839;SDS011;2434;48.486;7.964;2022-08-25T13:18:55;2.77;;;2.50;;
4839;SDS011;2434;48.486;7.964;2022-08-25T13:21:27;2.17;;;2.07;;
4839;SDS011;2434;48.486;7.964;2022-08-25T13:24:00;2.07;;;1.97;;
4839;SDS011;2434;48.486;7.964;2022-08-25T13:26:32;2.57;;;2.37;;
4839;SDS011;2434;48.486;7.964;2022-08-25T13:29:15;2.50;;;2.40;;
4839;SDS011;2434;48.486;7.964;2022-08-25T13:31:53;2.10;;;2.00;;
4839;SDS011;2434;48.486;7.964;2022-08-25T13:34:23;3.43;;;2.10;;
4839;SDS011;2434;48.486;7.964;2022-08-25T13:37:04;4.23;;;2.27;;
4839;SDS011;2434;48.486;7.964;2022-08-25T13:40:05;2.73;;;2.50;;
4839;SDS011;2434;48.486;7.964;2022-08-25T13:42:36;6.50;;;2.47;;
4839;SDS011;2434;48.486;7.964;2022-08-25T13:45:11;2.07;;;1.97;;
4839;SDS011;2434;48.486;7.964;2022-08-25T13:47:44;3.77;;;2.27;;
4839;SDS011;2434;48.486;7.964;2022-08-25T13:50:28;2.30;;;2.20;;
4839;SDS011;2434;48.486;7.964;2022-08-25T13:53:02;2.30;;;2.20;;
4839;SDS011;2434;48.486;7.964;2022-08-25T13:55:37;2.33;;;2.13;;
4839;SDS011;2434;48.486;7.964;2022-08-25T13:58:18;2.20;;;2.00;;
4839;SDS011;2434;48.486;7.964;2022-08-25T14:00:59;2.90;;;2.20;;
4839;SDS011;2434;48.486;7.964;2022-08-25T14:03:56;2.40;;;2.20;;
4839;SDS011;2434;48.486;7.964;2022-08-25T14:06:46;2.33;;;2.20;;
4839;SDS011;2434;48.486;7.964;2022-08-25T14:09:16;2.77;;;2.53;;
4839;SDS011;2434;48.486;7.964;2022-08-25T14:11:54;2.63;;;2.43;;
4839;SDS011;2434;48.486;7.964;2022-08-25T14:14:31;2.60;;;2.50;;
4839;SDS011;2434;48.486;7.964;2022-08-25T14:17:03;4.40;;;2.20;;
4839;SDS011;2434;48.486;7.964;2022-08-25T14:19:55;2.30;;;2.20;;
4839;SDS011;2434;48.486;7.964;2022-08-25T14:22:24;2.40;;;2.20;;
4839;SDS011;2434;48.486;7.964;2022-08-25T14:24:53;3.63;;;3.33;;
4839;SDS011;2434;48.486;7.964;2022-08-25T14:27:22;2.57;;;2.37;;
4839;SDS011;2434;48.486;7.964;2022-08-25T14:29:50;3.63;;;2.60;;
4839;SDS011;2434;48.486;7.964;2022-08-25T14:32:18;2.20;;;2.10;;
4839;SDS011;2434;48.486;7.964;2022-08-25T14:34:47;2.87;;;2.70;;
4839;SDS011;2434;48.486;7.964;2022-08-25T14:37:17;2.40;;;2.30;;
4839;SDS011;2434;48.486;7.964;2022-08-25T14:39:51;2.20;;;2.10;;
4839;SDS011;2434;48.486;7.964;2022-08-25T14:42:20;2.40;;;2.30;;
4839;SDS011;2434;48.486;7.964;2022-08-25T14:44:51;10.33;;;2.50;;
4839;SDS011;2434;48.486;7.964;2022-08-25T14:47:21;3.80;;;2.20;;
4839;SDS011;2434;48.486;7.964;2022-08-25T14:49:50;15.57;;;2.67;;
4839;SDS011;2434;48.486;7.964;2022-08-25T14:52:20;4.40;;;2.33;;
4839;SDS011;2434;48.486;7.964;2022-08-25T14:54:52;2.27;;;2.03;;
4839;SDS011;2434;48.486;7.964;2022-08-25T14:57:22;2.50;;;2.30;;
4839;SDS011;2434;48.486;7.964;2022-08-25T14:59:51;2.00;;;1.90;;
4839;SDS011;2434;48.486;7.964;2022-08-25T15:02:20;4.53;;;2.53;;
4839;SDS011;2434;48.486;7.964;2022-08-25T15:04:56;4.07;;;3.03;;
4839;SDS011;2434;48.486;7.964;2022-08-25T15:07:28;2.70;;;2.50;;
4839;SDS011;2434;48.486;7.964;2022-08-25T15:10:16;3.00;;;2.80;;
4839;SDS011;2434;48.486;7.964;2022-08-25T15:12:47;3.23;;;2.10;;
4839;SDS011;2434;48.486;7.964;2022-08-25T15:15:19;2.43;;;2.17;;
4839;SDS011;2434;48.486;7.964;2022-08-25T15:17:47;4.40;;;2.47;;
4839;SDS011;2434;48.486;7.964;2022-08-25T15:20:16;2.47;;;2.30;;
4839;SDS011;2434;48.486;7.964;2022-08-25T15:22:46;3.30;;;3.00;;
4839;SDS011;2434;48.486;7.964;2022-08-25T15:25:15;7.93;;;2.60;;
4839;SDS011;2434;48.486;7.964;2022-08-25T15:27:43;2.60;;;2.40;;
4839;SDS011;2434;48.486;7.964;2022-08-25T15:30:13;2.70;;;2.50;;
4839;SDS011;2434;48.486;7.964;2022-08-25T15:32:41;5.43;;;2.20;;
4839;SDS011;2434;48.486;7.964;2022-08-25T15:35:13;5.07;;;2.70;;
4839;SDS011;2434;48.486;7.964;2022-08-25T15:37:42;2.73;;;2.40;;
4839;SDS011;2434;48.486;7.964;2022-08-25T15:40:14;3.30;;;2.60;;
4839;SDS011;2434;48.486;7.964;2022-08-25T15:42:43;3.07;;;2.87;;
4839;SDS011;2434;48.486;7.964;2022-08-25T15:45:11;2.10;;;2.00;;
4839;SDS011;2434;48.486;7.964;2022-08-25T15:47:40;2.77;;;2.50;;
4839;SDS011;2434;48.486;7.964;2022-08-25T15:50:10;2.67;;;2.47;;
4839;SDS011;2434;48.486;7.964;2022-08-25T15:52:41;4.37;;;2.60;;
4839;SDS011;2434;48.486;7.964;2022-08-25T15:55:15;2.67;;;2.50;;
4839;SDS011;2434;48.486;7.964;2022-08-25T15:57:45;2.53;;;2.33;;
4839;SDS011;2434;48.486;7.964;2022-08-25T16:00:15;6.33;;;2.37;;
4839;SDS011;2434;48.486;7.964;2022-08-25T16:02:46;3.60;;;2.70;;
4839;SDS011;2434;48.486;7.964;2022-08-25T16:05:15;13.43;;;2.50;;